sensor_id;sensor_type;location;lat;lon;timestamp;P1;durP1;ratioP1;P2;durP2;ratioP2
31732;SDS011;18312;51.486;7.144;2024-03-07T00:00:42;1278.88;;;997.83;;
31732;SDS011;18312;51.486;7.144;2024-03-07T00:03:09;1280.63;;;999.90;;
31732;SDS011;18312;51.486;7.144;2024-03-07T00:05:36;1281.65;;;999.90;;
31732;SDS011;18312;51.486;7.144;2024-03-07T00:08:03;1278.72;;;996.05;;
31732;SDS011;18312;51.486;7.144;2024-03-07T00:10:32;1289.60;;;999.90;;
31732;SDS011;18312;51.486;7.144;2024-03-07T00:13:01;1286.70;;;999.60;;
31732;SDS011;18312;51.486;7.144;2024-03-07T00:15:28;1287.72;;;999.90;;
31732;SDS011;18312;51.486;7.144;2024-03-07T00:17:55;1292.78;;;996.30;;
31732;SDS011;18312;51.486;7.144;2024-03-07T00:20:22;1284.03;;;999.90;;
31732;SDS011;18312;51.486;7.144;2024-03-07T00:22:48;1280.88;;;998.47;;
31732;SDS011;18312;51.486;7.144;2024-03-07T00:25:15;1284.15;;;995.25;;
31732;SDS011;18312;51.486;7.144;2024-03-07T00:27:46;1280.55;;;991.05;;
31732;SDS011;18312;51.486;7.144;2024-03-07T00:30:12;1277.60;;;993.47;;
31732;SDS011;18312;51.486;7.144;2024-03-07T00:32:43;1292.38;;;988.30;;
31732;SDS011;18312;51.486;7.144;2024-03-07T00:35:10;1270.25;;;985.00;;
31732;SDS011;18312;51.486;7.144;2024-03-07T00:37:37;1265.95;;;984.55;;
31732;SDS011;18312;51.486;7.144;2024-03-07T00:40:04;1268.10;;;985.23;;
31732;SDS011;18312;51.486;7.144;2024-03-07T00:42:31;1263.38;;;980.42;;
31732;SDS011;18312;51.486;7.144;2024-03-07T00:45:00;1262.75;;;977.88;;
31732;SDS011;18312;51.486;7.144;2024-03-07T00:47:28;1254.28;;;979.17;;
31732;SDS011;18312;51.486;7.144;2024-03-07T00:49:55;1258.10;;;973.75;;
31732;SDS011;18312;51.486;7.144;2024-03-07T00:52:21;1259.55;;;979.95;;
31732;SDS011;18312;51.486;7.144;2024-03-07T00:54:48;1266.95;;;984.72;;
31732;SDS011;18312;51.486;7.144;2024-03-07T00:57:15;1259.88;;;977.70;;
31732;SDS011;18312;51.486;7.144;2024-03-07T00:59:42;1266.25;;;980.40;;
31732;SDS011;18312;51.486;7.144;2024-03-07T01:02:10;1264.32;;;980.42;;
31732;SDS011;18312;51.486;7.144;2024-03-07T01:04:37;1269.60;;;979.35;;
31732;SDS011;18312;51.486;7.144;2024-03-07T01:07:04;1269.18;;;976.17;;
31732;SDS011;18312;51.486;7.144;2024-03-07T01:09:31;1262.85;;;978.30;;
31732;SDS011;18312;51.486;7.144;2024-03-07T01:12:00;1259.25;;;980.78;;
31732;SDS011;18312;51.486;7.144;2024-03-07T01:14:29;1273.00;;;980.20;;
31732;SDS011;18312;51.486;7.144;2024-03-07T01:16:57;1256.87;;;974.37;;
31732;SDS011;18312;51.486;7.144;2024-03-07T01:19:25;1258.30;;;979.63;;
31732;SDS011;18312;51.486;7.144;2024-03-07T01:21:52;1261.27;;;973.57;;
31732;SDS011;18312;51.486;7.144;2024-03-07T01:24:19;1248.38;;;978.58;;
31732;SDS011;18312;51.486;7.144;2024-03-07T01:26:47;1258.53;;;975.45;;
31732;SDS011;18312;51.486;7.144;2024-03-07T01:29:14;1248.10;;;975.38;;
31732;SDS011;18312;51.486;7.144;2024-03-07T01:31:41;1258.22;;;975.08;;
31732;SDS011;18312;51.486;7.144;2024-03-07T01:34:08;1273.65;;;982.03;;
31732;SDS011;18312;51.486;7.144;2024-03-07T01:36:36;1263.30;;;978.80;;
31732;SDS011;18312;51.486;7.144;2024-03-07T01:39:04;1249.88;;;977.10;;
31732;SDS011;18312;51.486;7.144;2024-03-07T01:41:31;1255.20;;;976.30;;
31732;SDS011;18312;51.486;7.144;2024-03-07T01:43:59;1264.68;;;979.25;;
31732;SDS011;18312;51.486;7.144;2024-03-07T01:46:26;1258.65;;;976.60;;
31732;SDS011;18312;51.486;7.144;2024-03-07T01:48:54;1270.82;;;978.17;;
31732;SDS011;18312;51.486;7.144;2024-03-07T01:51:22;1256.05;;;975.03;;
31732;SDS011;18312;51.486;7.144;2024-03-07T01:53:50;1261.05;;;979.42;;
31732;SDS011;18312;51.486;7.144;2024-03-07T01:56:18;1247.53;;;977.08;;
31732;SDS011;18312;51.486;7.144;2024-03-07T01:58:46;1276.55;;;982.97;;
31732;SDS011;18312;51.486;7.144;2024-03-07T02:01:13;1264.55;;;979.75;;
31732;SDS011;18312;51.486;7.144;2024-03-07T02:03:40;1263.22;;;975.22;;
31732;SDS011;18312;51.486;7.144;2024-03-07T02:06:08;1268.72;;;978.35;;
31732;SDS011;18312;51.486;7.144;2024-03-07T02:08:35;1268.38;;;977.63;;
31732;SDS011;18312;51.486;7.144;2024-03-07T02:11:03;1268.90;;;981.88;;
31732;SDS011;18312;51.486;7.144;2024-03-07T02:13:30;1269.82;;;977.70;;
31732;SDS011;18312;51.486;7.144;2024-03-07T02:15:57;1267.40;;;974.95;;
31732;SDS011;18312;51.486;7.144;2024-03-07T02:18:25;1272.05;;;976.28;;
31732;SDS011;18312;51.486;7.144;2024-03-07T02:20:54;1269.47;;;979.08;;
31732;SDS011;18312;51.486;7.144;2024-03-07T02:23:21;1274.68;;;976.92;;
31732;SDS011;18312;51.486;7.144;2024-03-07T02:25:48;1267.47;;;976.70;;
31732;SDS011;18312;51.486;7.144;2024-03-07T02:28:15;1251.53;;;974.10;;
31732;SDS011;18312;51.486;7.144;2024-03-07T02:30:42;1259.70;;;979.63;;
31732;SDS011;18312;51.486;7.144;2024-03-07T02:33:10;1263.05;;;971.33;;
31732;SDS011;18312;51.486;7.144;2024-03-07T02:35:37;1268.20;;;975.03;;
31732;SDS011;18312;51.486;7.144;2024-03-07T02:38:05;1263.40;;;980.42;;
31732;SDS011;18312;51.486;7.144;2024-03-07T02:40:32;1265.53;;;976.58;;
31732;SDS011;18312;51.486;7.144;2024-03-07T02:42:59;1266.13;;;975.55;;
31732;SDS011;18312;51.486;7.144;2024-03-07T02:45:28;1267.13;;;975.90;;
31732;SDS011;18312;51.486;7.144;2024-03-07T02:47:55;1264.63;;;973.00;;
31732;SDS011;18312;51.486;7.144;2024-03-07T02:50:22;1265.30;;;976.10;;
31732;SDS011;18312;51.486;7.144;2024-03-07T02:52:49;1269.53;;;978.58;;
31732;SDS011;18312;51.486;7.144;2024-03-07T02:55:19;1252.20;;;973.35;;
31732;SDS011;18312;51.486;7.144;2024-03-07T02:57:46;1267.97;;;977.35;;
31732;SDS011;18312;51.486;7.144;2024-03-07T03:00:13;1248.25;;;971.97;;
31732;SDS011;18312;51.486;7.144;2024-03-07T03:02:45;1270.05;;;976.30;;
31732;SDS011;18312;51.486;7.144;2024-03-07T03:05:13;1262.95;;;973.58;;
31732;SDS011;18312;51.486;7.144;2024-03-07T03:07:40;1261.13;;;970.30;;
31732;SDS011;18312;51.486;7.144;2024-03-07T03:10:07;1264.30;;;972.15;;
31732;SDS011;18312;51.486;7.144;2024-03-07T03:12:37;1263.85;;;973.90;;
31732;SDS011;18312;51.486;7.144;2024-03-07T03:15:05;1279.23;;;978.50;;
31732;SDS011;18312;51.486;7.144;2024-03-07T03:17:35;1273.40;;;979.80;;
31732;SDS011;18312;51.486;7.144;2024-03-07T03:20:01;1273.03;;;972.38;;
31732;SDS011;18312;51.486;7.144;2024-03-07T03:22:29;1287.45;;;977.38;;
31732;SDS011;18312;51.486;7.144;2024-03-07T03:24:57;1275.03;;;972.50;;
31732;SDS011;18312;51.486;7.144;2024-03-07T03:27:23;1272.97;;;973.00;;
31732;SDS011;18312;51.486;7.144;2024-03-07T03:29:52;1294.43;;;973.85;;
31732;SDS011;18312;51.486;7.144;2024-03-07T03:32:19;1281.25;;;976.53;;
31732;SDS011;18312;51.486;7.144;2024-03-07T03:34:46;1282.43;;;975.08;;
31732;SDS011;18312;51.486;7.144;2024-03-07T03:37:12;1272.30;;;971.40;;
31732;SDS011;18312;51.486;7.144;2024-03-07T03:39:40;1266.43;;;973.10;;
31732;SDS011;18312;51.486;7.144;2024-03-07T03:42:07;1269.10;;;968.08;;
31732;SDS011;18312;51.486;7.144;2024-03-07T03:44:34;1274.50;;;968.50;;
31732;SDS011;18312;51.486;7.144;2024-03-07T03:47:03;1271.40;;;967.70;;
31732;SDS011;18312;51.486;7.144;2024-03-07T03:49:30;1254.73;;;966.13;;
31732;SDS011;18312;51.486;7.144;2024-03-07T03:51:57;1261.43;;;968.03;;
31732;SDS011;18312;51.486;7.144;2024-03-07T03:54:24;1271.13;;;969.42;;
31732;SDS011;18312;51.486;7.144;2024-03-07T03:56:52;1278.80;;;966.35;;
31732;SDS011;18312;51.486;7.144;2024-03-07T03:59:19;1271.57;;;965.13;;
31732;SDS011;18312;51.486;7.144;2024-03-07T04:01:46;1290.43;;;969.40;;
31732;SDS011;18312;51.486;7.144;2024-03-07T04:04:14;1266.45;;;966.58;;
31732;SDS011;18312;51.486;7.144;2024-03-07T04:06:41;1273.47;;;964.50;;
31732;SDS011;18312;51.486;7.144;2024-03-07T04:09:08;1266.53;;;969.40;;
31732;SDS011;18312;51.486;7.144;2024-03-07T04:11:35;1267.72;;;963.78;;
31732;SDS011;18312;51.486;7.144;2024-03-07T04:14:03;1275.43;;;965.20;;
31732;SDS011;18312;51.486;7.144;2024-03-07T04:16:30;1297.22;;;966.35;;
31732;SDS011;18312;51.486;7.144;2024-03-07T04:18:56;1270.72;;;962.92;;
31732;SDS011;18312;51.486;7.144;2024-03-07T04:21:25;1271.18;;;962.53;;
31732;SDS011;18312;51.486;7.144;2024-03-07T04:23:52;1283.73;;;962.13;;
31732;SDS011;18312;51.486;7.144;2024-03-07T04:26:18;1274.53;;;960.72;;
31732;SDS011;18312;51.486;7.144;2024-03-07T04:28:45;1272.82;;;964.63;;
31732;SDS011;18312;51.486;7.144;2024-03-07T04:31:13;1272.07;;;964.65;;
31732;SDS011;18312;51.486;7.144;2024-03-07T04:33:40;1282.50;;;963.17;;
31732;SDS011;18312;51.486;7.144;2024-03-07T04:36:07;1267.75;;;966.33;;
31732;SDS011;18312;51.486;7.144;2024-03-07T04:38:35;1270.47;;;964.25;;
31732;SDS011;18312;51.486;7.144;2024-03-07T04:41:02;1266.00;;;961.83;;
31732;SDS011;18312;51.486;7.144;2024-03-07T04:43:30;1255.00;;;962.15;;
31732;SDS011;18312;51.486;7.144;2024-03-07T04:45:57;1270.18;;;958.90;;
31732;SDS011;18312;51.486;7.144;2024-03-07T04:48:25;1273.57;;;965.55;;
31732;SDS011;18312;51.486;7.144;2024-03-07T04:50:51;1261.65;;;962.03;;
31732;SDS011;18312;51.486;7.144;2024-03-07T04:53:18;1262.63;;;962.50;;
31732;SDS011;18312;51.486;7.144;2024-03-07T04:55:47;1274.55;;;963.53;;
31732;SDS011;18312;51.486;7.144;2024-03-07T04:58:13;1275.57;;;965.67;;
31732;SDS011;18312;51.486;7.144;2024-03-07T05:00:40;1275.93;;;962.22;;
31732;SDS011;18312;51.486;7.144;2024-03-07T05:03:07;1256.75;;;958.45;;
31732;SDS011;18312;51.486;7.144;2024-03-07T05:05:36;1275.60;;;964.42;;
31732;SDS011;18312;51.486;7.144;2024-03-07T05:08:03;1279.78;;;965.10;;
31732;SDS011;18312;51.486;7.144;2024-03-07T05:10:30;1268.43;;;961.70;;
31732;SDS011;18312;51.486;7.144;2024-03-07T05:12:58;1286.45;;;965.80;;
31732;SDS011;18312;51.486;7.144;2024-03-07T05:15:25;1270.50;;;961.38;;
31732;SDS011;18312;51.486;7.144;2024-03-07T05:17:52;1272.28;;;965.20;;
31732;SDS011;18312;51.486;7.144;2024-03-07T05:20:21;1265.97;;;962.30;;
31732;SDS011;18312;51.486;7.144;2024-03-07T05:22:48;1282.20;;;961.05;;
31732;SDS011;18312;51.486;7.144;2024-03-07T05:25:16;1280.17;;;962.93;;
31732;SDS011;18312;51.486;7.144;2024-03-07T05:27:44;1283.78;;;966.25;;
31732;SDS011;18312;51.486;7.144;2024-03-07T05:30:13;1287.63;;;966.53;;
31732;SDS011;18312;51.486;7.144;2024-03-07T05:32:40;1298.10;;;968.93;;
31732;SDS011;18312;51.486;7.144;2024-03-07T05:35:07;1294.00;;;968.75;;
31732;SDS011;18312;51.486;7.144;2024-03-07T05:37:36;1344.55;;;977.20;;
31732;SDS011;18312;51.486;7.144;2024-03-07T05:40:07;1315.17;;;974.63;;
31732;SDS011;18312;51.486;7.144;2024-03-07T05:42:34;1340.30;;;981.85;;
31732;SDS011;18312;51.486;7.144;2024-03-07T05:45:02;1286.63;;;972.47;;
31732;SDS011;18312;51.486;7.144;2024-03-07T05:47:34;1286.15;;;971.28;;
31732;SDS011;18312;51.486;7.144;2024-03-07T05:50:01;1290.60;;;973.13;;
31732;SDS011;18312;51.486;7.144;2024-03-07T05:52:28;1285.95;;;972.35;;
31732;SDS011;18312;51.486;7.144;2024-03-07T05:54:55;1279.32;;;973.38;;
31732;SDS011;18312;51.486;7.144;2024-03-07T05:57:23;1301.18;;;975.33;;
31732;SDS011;18312;51.486;7.144;2024-03-07T05:59:50;1284.43;;;974.83;;
31732;SDS011;18312;51.486;7.144;2024-03-07T06:02:17;1278.35;;;971.15;;
31732;SDS011;18312;51.486;7.144;2024-03-07T06:04:46;1275.07;;;971.97;;
31732;SDS011;18312;51.486;7.144;2024-03-07T06:07:13;1274.03;;;971.88;;
31732;SDS011;18312;51.486;7.144;2024-03-07T06:09:40;1278.70;;;967.63;;
31732;SDS011;18312;51.486;7.144;2024-03-07T06:12:08;1285.87;;;974.03;;
31732;SDS011;18312;51.486;7.144;2024-03-07T06:14:35;1274.88;;;968.42;;
31732;SDS011;18312;51.486;7.144;2024-03-07T06:17:02;1268.82;;;969.75;;
31732;SDS011;18312;51.486;7.144;2024-03-07T06:19:29;1275.00;;;970.47;;
31732;SDS011;18312;51.486;7.144;2024-03-07T06:21:58;1280.68;;;968.45;;
31732;SDS011;18312;51.486;7.144;2024-03-07T06:24:31;1276.33;;;971.07;;
31732;SDS011;18312;51.486;7.144;2024-03-07T06:26:58;1281.50;;;970.80;;
31732;SDS011;18312;51.486;7.144;2024-03-07T06:29:24;1276.07;;;969.60;;
31732;SDS011;18312;51.486;7.144;2024-03-07T06:31:52;1271.68;;;970.75;;
31732;SDS011;18312;51.486;7.144;2024-03-07T06:34:20;1255.47;;;969.13;;
31732;SDS011;18312;51.486;7.144;2024-03-07T06:36:47;1213.78;;;959.28;;
31732;SDS011;18312;51.486;7.144;2024-03-07T06:39:16;1183.00;;;951.97;;
31732;SDS011;18312;51.486;7.144;2024-03-07T06:41:47;1199.38;;;954.33;;
31732;SDS011;18312;51.486;7.144;2024-03-07T06:44:14;1334.15;;;981.45;;
31732;SDS011;18312;51.486;7.144;2024-03-07T06:46:42;1334.40;;;986.03;;
31732;SDS011;18312;51.486;7.144;2024-03-07T06:49:10;1065.45;;;936.55;;
31732;SDS011;18312;51.486;7.144;2024-03-07T06:51:37;1067.20;;;939.70;;
31732;SDS011;18312;51.486;7.144;2024-03-07T06:54:04;1070.50;;;937.60;;
31732;SDS011;18312;51.486;7.144;2024-03-07T06:56:34;1067.60;;;940.35;;
31732;SDS011;18312;51.486;7.144;2024-03-07T06:59:01;1076.30;;;938.67;;
31732;SDS011;18312;51.486;7.144;2024-03-07T07:01:29;1070.15;;;938.97;;
31732;SDS011;18312;51.486;7.144;2024-03-07T07:03:56;1072.38;;;945.78;;
31732;SDS011;18312;51.486;7.144;2024-03-07T07:06:28;1072.87;;;945.13;;
31732;SDS011;18312;51.486;7.144;2024-03-07T07:08:55;1068.97;;;943.73;;
31732;SDS011;18312;51.486;7.144;2024-03-07T07:11:23;1068.32;;;946.17;;
31732;SDS011;18312;51.486;7.144;2024-03-07T07:13:51;1070.68;;;948.20;;
31732;SDS011;18312;51.486;7.144;2024-03-07T07:16:18;1068.33;;;946.80;;
31732;SDS011;18312;51.486;7.144;2024-03-07T07:18:45;1071.57;;;950.77;;
31732;SDS011;18312;51.486;7.144;2024-03-07T07:21:11;1075.40;;;952.47;;
31732;SDS011;18312;51.486;7.144;2024-03-07T07:23:40;1086.07;;;966.42;;
31732;SDS011;18312;51.486;7.144;2024-03-07T07:26:07;1107.85;;;986.05;;
31732;SDS011;18312;51.486;7.144;2024-03-07T07:28:34;1112.00;;;990.95;;
31732;SDS011;18312;51.486;7.144;2024-03-07T07:31:02;1130.93;;;999.90;;
31732;SDS011;18312;51.486;7.144;2024-03-07T07:33:30;1134.20;;;999.90;;
31732;SDS011;18312;51.486;7.144;2024-03-07T07:35:57;1129.82;;;999.90;;
31732;SDS011;18312;51.486;7.144;2024-03-07T07:38:24;1131.55;;;999.90;;
31732;SDS011;18312;51.486;7.144;2024-03-07T07:40:51;1130.20;;;999.90;;
31732;SDS011;18312;51.486;7.144;2024-03-07T07:43:17;1124.90;;;999.90;;
31732;SDS011;18312;51.486;7.144;2024-03-07T07:45:44;1125.97;;;999.90;;
31732;SDS011;18312;51.486;7.144;2024-03-07T07:48:12;1139.10;;;999.90;;
31732;SDS011;18312;51.486;7.144;2024-03-07T07:50:41;1148.55;;;999.90;;
31732;SDS011;18312;51.486;7.144;2024-03-07T07:53:08;1168.07;;;999.90;;
31732;SDS011;18312;51.486;7.144;2024-03-07T07:55:35;1184.28;;;999.90;;
31732;SDS011;18312;51.486;7.144;2024-03-07T07:58:03;1202.18;;;999.90;;
31732;SDS011;18312;51.486;7.144;2024-03-07T08:00:30;1211.47;;;999.90;;
31732;SDS011;18312;51.486;7.144;2024-03-07T08:02:58;1221.63;;;999.90;;
31732;SDS011;18312;51.486;7.144;2024-03-07T08:05:27;1230.90;;;999.90;;
31732;SDS011;18312;51.486;7.144;2024-03-07T08:07:57;1236.53;;;999.90;;
31732;SDS011;18312;51.486;7.144;2024-03-07T08:10:25;1242.90;;;999.90;;
31732;SDS011;18312;51.486;7.144;2024-03-07T08:12:53;1249.93;;;999.90;;
31732;SDS011;18312;51.486;7.144;2024-03-07T08:15:21;1261.78;;;999.90;;
31732;SDS011;18312;51.486;7.144;2024-03-07T08:17:48;1261.53;;;999.90;;
31732;SDS011;18312;51.486;7.144;2024-03-07T08:20:17;1268.50;;;999.90;;
31732;SDS011;18312;51.486;7.144;2024-03-07T08:22:47;1267.60;;;999.90;;
31732;SDS011;18312;51.486;7.144;2024-03-07T08:25:16;1269.78;;;999.90;;
31732;SDS011;18312;51.486;7.144;2024-03-07T08:27:44;1266.97;;;999.90;;
31732;SDS011;18312;51.486;7.144;2024-03-07T08:30:14;1262.90;;;999.90;;
31732;SDS011;18312;51.486;7.144;2024-03-07T08:32:41;1254.57;;;999.90;;
31732;SDS011;18312;51.486;7.144;2024-03-07T08:35:09;1247.77;;;999.90;;
31732;SDS011;18312;51.486;7.144;2024-03-07T08:37:37;1241.37;;;999.90;;
31732;SDS011;18312;51.486;7.144;2024-03-07T08:40:05;1236.95;;;999.90;;
31732;SDS011;18312;51.486;7.144;2024-03-07T08:42:35;1231.28;;;999.90;;
31732;SDS011;18312;51.486;7.144;2024-03-07T08:45:02;1224.82;;;999.90;;
31732;SDS011;18312;51.486;7.144;2024-03-07T08:47:30;1220.47;;;999.90;;
31732;SDS011;18312;51.486;7.144;2024-03-07T08:49:57;1209.20;;;999.90;;
31732;SDS011;18312;51.486;7.144;2024-03-07T08:52:24;1205.32;;;999.90;;
31732;SDS011;18312;51.486;7.144;2024-03-07T08:54:51;1197.47;;;999.90;;
31732;SDS011;18312;51.486;7.144;2024-03-07T08:57:20;1194.15;;;999.90;;
31732;SDS011;18312;51.486;7.144;2024-03-07T08:59:47;1190.35;;;999.90;;
31732;SDS011;18312;51.486;7.144;2024-03-07T09:02:14;1189.60;;;999.90;;
31732;SDS011;18312;51.486;7.144;2024-03-07T09:04:40;1183.97;;;999.90;;
31732;SDS011;18312;51.486;7.144;2024-03-07T09:07:07;1184.07;;;999.90;;
31732;SDS011;18312;51.486;7.144;2024-03-07T09:09:34;1182.25;;;999.90;;
31732;SDS011;18312;51.486;7.144;2024-03-07T09:12:01;1178.40;;;999.90;;
31732;SDS011;18312;51.486;7.144;2024-03-07T09:14:29;1169.35;;;999.90;;
31732;SDS011;18312;51.486;7.144;2024-03-07T09:16:56;1168.18;;;999.90;;
31732;SDS011;18312;51.486;7.144;2024-03-07T09:19:23;1168.60;;;999.90;;
31732;SDS011;18312;51.486;7.144;2024-03-07T09:21:50;1169.00;;;999.90;;
31732;SDS011;18312;51.486;7.144;2024-03-07T09:24:18;1169.63;;;999.90;;
31732;SDS011;18312;51.486;7.144;2024-03-07T09:26:47;1173.78;;;999.90;;
31732;SDS011;18312;51.486;7.144;2024-03-07T09:29:14;1172.13;;;999.90;;
31732;SDS011;18312;51.486;7.144;2024-03-07T09:31:42;1171.13;;;999.90;;
31732;SDS011;18312;51.486;7.144;2024-03-07T09:34:10;1173.28;;;999.90;;
31732;SDS011;18312;51.486;7.144;2024-03-07T09:36:37;1174.15;;;999.90;;
31732;SDS011;18312;51.486;7.144;2024-03-07T09:39:04;1176.07;;;999.90;;
31732;SDS011;18312;51.486;7.144;2024-03-07T09:41:31;1177.03;;;999.90;;
31732;SDS011;18312;51.486;7.144;2024-03-07T09:43:58;1182.07;;;999.90;;
31732;SDS011;18312;51.486;7.144;2024-03-07T09:46:28;1188.28;;;999.90;;
31732;SDS011;18312;51.486;7.144;2024-03-07T09:48:57;1186.47;;;999.90;;
31732;SDS011;18312;51.486;7.144;2024-03-07T09:51:24;1188.63;;;999.90;;
31732;SDS011;18312;51.486;7.144;2024-03-07T09:53:52;1193.85;;;999.90;;
31732;SDS011;18312;51.486;7.144;2024-03-07T09:56:23;1196.20;;;999.90;;
31732;SDS011;18312;51.486;7.144;2024-03-07T09:58:51;1199.40;;;999.90;;
31732;SDS011;18312;51.486;7.144;2024-03-07T10:01:21;1203.50;;;999.90;;
31732;SDS011;18312;51.486;7.144;2024-03-07T10:03:50;1207.15;;;999.90;;
31732;SDS011;18312;51.486;7.144;2024-03-07T10:06:25;1210.45;;;999.90;;
31732;SDS011;18312;51.486;7.144;2024-03-07T10:08:54;1212.27;;;999.90;;
31732;SDS011;18312;51.486;7.144;2024-03-07T10:11:21;1214.55;;;999.90;;
31732;SDS011;18312;51.486;7.144;2024-03-07T10:13:49;1215.25;;;999.90;;
31732;SDS011;18312;51.486;7.144;2024-03-07T10:16:16;1218.03;;;999.90;;
31732;SDS011;18312;51.486;7.144;2024-03-07T10:18:43;1216.82;;;999.90;;
31732;SDS011;18312;51.486;7.144;2024-03-07T10:21:12;1223.40;;;999.90;;
31732;SDS011;18312;51.486;7.144;2024-03-07T10:23:40;1222.57;;;999.90;;
31732;SDS011;18312;51.486;7.144;2024-03-07T10:26:07;1224.05;;;999.90;;
31732;SDS011;18312;51.486;7.144;2024-03-07T10:28:35;1223.97;;;999.90;;
31732;SDS011;18312;51.486;7.144;2024-03-07T10:31:02;1223.82;;;999.90;;
31732;SDS011;18312;51.486;7.144;2024-03-07T10:33:37;1224.63;;;999.90;;
31732;SDS011;18312;51.486;7.144;2024-03-07T10:36:05;1224.95;;;999.90;;
31732;SDS011;18312;51.486;7.144;2024-03-07T10:38:38;1232.50;;;999.90;;
31732;SDS011;18312;51.486;7.144;2024-03-07T10:41:06;1232.55;;;999.90;;
31732;SDS011;18312;51.486;7.144;2024-03-07T10:43:34;1236.45;;;999.90;;
31732;SDS011;18312;51.486;7.144;2024-03-07T10:46:06;1239.38;;;999.90;;
31732;SDS011;18312;51.486;7.144;2024-03-07T10:48:37;1236.35;;;999.90;;
31732;SDS011;18312;51.486;7.144;2024-03-07T10:51:06;1225.25;;;999.90;;
31732;SDS011;18312;51.486;7.144;2024-03-07T10:53:50;1224.15;;;999.90;;
31732;SDS011;18312;51.486;7.144;2024-03-07T10:56:32;1227.03;;;999.90;;
31732;SDS011;18312;51.486;7.144;2024-03-07T10:59:07;1228.88;;;999.90;;
31732;SDS011;18312;51.486;7.144;2024-03-07T11:01:44;1226.38;;;999.90;;
31732;SDS011;18312;51.486;7.144;2024-03-07T11:04:19;1230.95;;;999.90;;
31732;SDS011;18312;51.486;7.144;2024-03-07T11:06:49;1230.22;;;999.90;;
31732;SDS011;18312;51.486;7.144;2024-03-07T11:09:16;1221.33;;;999.90;;
31732;SDS011;18312;51.486;7.144;2024-03-07T11:11:50;1220.87;;;999.90;;
31732;SDS011;18312;51.486;7.144;2024-03-07T11:14:18;1227.05;;;999.90;;
31732;SDS011;18312;51.486;7.144;2024-03-07T11:16:45;1229.73;;;999.90;;
31732;SDS011;18312;51.486;7.144;2024-03-07T11:19:21;1231.68;;;999.90;;
31732;SDS011;18312;51.486;7.144;2024-03-07T11:21:52;1236.03;;;999.90;;
31732;SDS011;18312;51.486;7.144;2024-03-07T11:24:24;1237.30;;;999.90;;
31732;SDS011;18312;51.486;7.144;2024-03-07T11:26:54;1235.70;;;999.90;;
31732;SDS011;18312;51.486;7.144;2024-03-07T11:29:45;1239.55;;;999.90;;
31732;SDS011;18312;51.486;7.144;2024-03-07T11:32:18;1240.78;;;999.90;;
31732;SDS011;18312;51.486;7.144;2024-03-07T11:34:46;1242.22;;;999.90;;
31732;SDS011;18312;51.486;7.144;2024-03-07T11:37:17;1245.20;;;999.90;;
31732;SDS011;18312;51.486;7.144;2024-03-07T11:39:48;1245.47;;;999.90;;
31732;SDS011;18312;51.486;7.144;2024-03-07T11:42:21;1245.10;;;999.90;;
31732;SDS011;18312;51.486;7.144;2024-03-07T11:44:50;1242.93;;;999.90;;
31732;SDS011;18312;51.486;7.144;2024-03-07T11:47:17;1245.82;;;999.90;;
31732;SDS011;18312;51.486;7.144;2024-03-07T11:49:44;1245.25;;;999.90;;
31732;SDS011;18312;51.486;7.144;2024-03-07T11:52:14;1248.80;;;999.90;;
31732;SDS011;18312;51.486;7.144;2024-03-07T11:54:41;1248.13;;;999.90;;
31732;SDS011;18312;51.486;7.144;2024-03-07T11:57:11;1251.60;;;999.90;;
31732;SDS011;18312;51.486;7.144;2024-03-07T11:59:40;1257.07;;;999.90;;
31732;SDS011;18312;51.486;7.144;2024-03-07T12:02:10;1256.57;;;999.90;;
31732;SDS011;18312;51.486;7.144;2024-03-07T12:04:38;1256.47;;;999.90;;
31732;SDS011;18312;51.486;7.144;2024-03-07T12:07:05;1257.35;;;999.90;;
31732;SDS011;18312;51.486;7.144;2024-03-07T12:09:35;1253.68;;;999.90;;
31732;SDS011;18312;51.486;7.144;2024-03-07T12:12:03;1253.00;;;999.90;;
31732;SDS011;18312;51.486;7.144;2024-03-07T12:14:30;1253.03;;;999.90;;
31732;SDS011;18312;51.486;7.144;2024-03-07T12:17:00;1250.03;;;999.90;;
31732;SDS011;18312;51.486;7.144;2024-03-07T12:19:29;1251.55;;;999.90;;
31732;SDS011;18312;51.486;7.144;2024-03-07T12:21:57;1250.18;;;999.90;;
31732;SDS011;18312;51.486;7.144;2024-03-07T12:24:27;1256.60;;;999.90;;
31732;SDS011;18312;51.486;7.144;2024-03-07T12:27:04;1251.68;;;999.90;;
31732;SDS011;18312;51.486;7.144;2024-03-07T12:29:31;1249.22;;;999.90;;
31732;SDS011;18312;51.486;7.144;2024-03-07T12:31:58;1253.40;;;999.90;;
31732;SDS011;18312;51.486;7.144;2024-03-07T12:34:26;1252.85;;;999.90;;
31732;SDS011;18312;51.486;7.144;2024-03-07T12:36:55;1250.80;;;999.90;;
31732;SDS011;18312;51.486;7.144;2024-03-07T12:39:22;1249.27;;;999.90;;
31732;SDS011;18312;51.486;7.144;2024-03-07T12:41:57;1248.47;;;999.90;;
31732;SDS011;18312;51.486;7.144;2024-03-07T12:44:24;1247.70;;;999.90;;
31732;SDS011;18312;51.486;7.144;2024-03-07T12:46:53;1250.75;;;999.90;;
31732;SDS011;18312;51.486;7.144;2024-03-07T12:49:21;1251.30;;;999.90;;
31732;SDS011;18312;51.486;7.144;2024-03-07T12:51:53;1250.85;;;999.90;;
31732;SDS011;18312;51.486;7.144;2024-03-07T12:54:20;1253.07;;;999.90;;
31732;SDS011;18312;51.486;7.144;2024-03-07T12:56:47;1249.10;;;999.90;;
31732;SDS011;18312;51.486;7.144;2024-03-07T12:59:15;1249.72;;;999.90;;
31732;SDS011;18312;51.486;7.144;2024-03-07T13:01:42;1248.60;;;999.90;;
31732;SDS011;18312;51.486;7.144;2024-03-07T13:04:12;1252.38;;;999.90;;
31732;SDS011;18312;51.486;7.144;2024-03-07T13:06:39;1248.93;;;999.90;;
31732;SDS011;18312;51.486;7.144;2024-03-07T13:09:09;1250.65;;;999.90;;
31732;SDS011;18312;51.486;7.144;2024-03-07T13:11:37;1255.70;;;999.90;;
31732;SDS011;18312;51.486;7.144;2024-03-07T13:14:06;1253.05;;;999.90;;
31732;SDS011;18312;51.486;7.144;2024-03-07T13:16:32;1256.70;;;999.90;;
31732;SDS011;18312;51.486;7.144;2024-03-07T13:18:59;1260.93;;;999.90;;
31732;SDS011;18312;51.486;7.144;2024-03-07T13:21:30;1257.03;;;999.90;;
31732;SDS011;18312;51.486;7.144;2024-03-07T13:23:57;1253.82;;;999.90;;
31732;SDS011;18312;51.486;7.144;2024-03-07T13:26:27;1258.10;;;999.90;;
31732;SDS011;18312;51.486;7.144;2024-03-07T13:28:55;1259.65;;;999.90;;
31732;SDS011;18312;51.486;7.144;2024-03-07T13:31:25;1260.03;;;999.90;;
31732;SDS011;18312;51.486;7.144;2024-03-07T13:33:52;1259.00;;;999.90;;
31732;SDS011;18312;51.486;7.144;2024-03-07T13:36:20;1259.70;;;999.90;;
31732;SDS011;18312;51.486;7.144;2024-03-07T13:38:48;1260.25;;;999.90;;
31732;SDS011;18312;51.486;7.144;2024-03-07T13:41:17;1259.63;;;999.90;;
31732;SDS011;18312;51.486;7.144;2024-03-07T13:43:45;1258.25;;;999.90;;
31732;SDS011;18312;51.486;7.144;2024-03-07T13:46:12;1259.53;;;999.90;;
31732;SDS011;18312;51.486;7.144;2024-03-07T13:48:39;1258.40;;;999.90;;